Nearby METAR Reports

 

EGNR - Hawarden (aut), United Kingdom
Distance from station: ESE 33mi, 53km
Updated: 07/12/2022 10:20
Few Clouds
Few Clouds
 Wind from WNW
Wind: WNW 3 mph , 6 km/h
Temperature: 3°C
Dew Point: -1°C
Humidity: 75%
Barometer: 1025 hPa
Clouds: Few Clouds
Visibility: 6 miles , 10 km
Cloud details: Few Clouds 701 m
2022/12/07 10:20 EGNR 071020Z 30003KT 270V330 9999 FEW023 03/M01 Q1025
EGOV - Valley Raf, United Kingdom
Distance from station: W 33mi, 53km
Updated: 07/12/2022 10:20
Nearby showers, Mostly cloudy
Nearby showers, Mostly cloudy
 Wind from NE
Wind: NE 5 mph , 7 km/h
Temperature: 5°C
Wind Chill: 3°C
Dew Point: 2°C
Humidity: 81%
Barometer: 1024 hPa
Summary: Nearby Showers
Clouds: Mostly cloudy
Visibility: 6 miles , 10 km
Cloud details: Few Clouds 1280 m
Mostly cloudy 1463 m
2022/12/07 10:20 EGOV 071020Z 05004KT 9999 VCSH FEW042 BKN048 05/02 Q1024 NOSIG RMK BLU BLU
 
EGGP - Liverpool Airpor, United Kingdom
Distance from station: E 37mi, 59km
Updated: 07/12/2022 10:20
Clear
Clear
 Wind from N
Wind: N 7 mph , 11 km/h
Temperature: 3°C
Wind Chill: 0°C
Dew Point: -1°C
Humidity: 75%
Barometer: 1024 hPa
Summary: Clear
Visibility: greater than 7 miles , 10 km
2022/12/07 10:20 EGGP 071020Z 35006KT 310V020 CAVOK 03/M01 Q1024
EGNH - Blackpool Airpor, United Kingdom
Distance from station: NE 44mi, 72km
Updated: 07/12/2022 10:20
Few Clouds
Few Clouds
 Wind from E
Wind: E 2 mph , 4 km/h
Temperature: 2°C
Dew Point: 0°C
Humidity: 87%
Barometer: 1024 hPa
Clouds: Few Clouds
Visibility: 6 miles , 10 km
Cloud details: Few Clouds 914 m
2022/12/07 10:20 EGNH 071020Z 08002KT 9999 FEW030 02/00 Q1024
 
EGNO - Wharton, United Kingdom
Distance from station: NE 47mi, 76km
Updated: 07/12/2022 10:20
Few Clouds
Few Clouds
 Wind from NE
Wind: NE 2 mph , 4 km/h
Temperature: 1°C
Dew Point: -1°C
Humidity: 87%
Barometer: 1024 hPa
Clouds: Few Clouds
Visibility: 6 miles , 10 km
Cloud details: Few Clouds 762 m
2022/12/07 10:20 EGNO 071020Z 04002KT 9999 FEW025 01/M01 Q1024
EGOS - Shawbury Raf, United Kingdom
Distance from station: SE 56mi, 89km
Updated: 07/12/2022 10:20
Few Clouds
Few Clouds
 Wind from NW
Wind: NW 8 mph , 13 km/h
Temperature: 2°C
Wind Chill: -1°C
Dew Point: -1°C
Humidity: 81%
Barometer: 1024 hPa
Clouds: Few Clouds
Visibility: 6 miles , 10 km
Cloud details: Few Clouds 488 m
2022/12/07 10:20 EGOS 071020Z 31007KT 9999 FEW016 02/M01 Q1024 NOSIG RMK BLU BLU
 
EGCC - Manchester Intl, United Kingdom
Distance from station: E 61mi, 98km
Updated: 07/12/2022 10:20
Partly cloudy
Partly cloudy
 Wind from varies
Wind: varies 2 mph , 4 km/h
Temperature: -1°C
Dew Point: -2°C
Humidity: 93%
Barometer: 1023 hPa
Clouds: Partly cloudy
Visibility: 4 miles , 6 km
2022/12/07 10:20 EGCC 071020Z VRB02KT 6000 NSC M01/M02 Q1023
EGNS - Isle Of Man/Rona, United Kingdom
Distance from station: NW 66mi, 107km
Updated: 07/12/2022 10:20
Few Clouds
Few Clouds
 Wind from N
Wind: N 6 mph , 9 km/h
Temperature: 5°C
Wind Chill: 3°C
Dew Point: -1°C
Humidity: 66%
Barometer: 1024 hPa
Clouds: Few Clouds
Visibility: 6 miles , 10 km
Cloud details: Few Clouds 914 m
2022/12/07 10:20 EGNS 071020Z 36005KT 330V030 9999 FEW030 05/M01 Q1024 NOSIG
 
EGNM - Leeds And Bradfo, United Kingdom
Distance from station: ENE 95mi, 153km
Updated: 07/12/2022 10:20
Clear
Clear
 Wind from WNW
Wind: WNW 13 mph , 20 km/h
Temperature: 1°C
Wind Chill: -4°C
Dew Point: -3°C
Humidity: 75%
Barometer: 1022 hPa
Summary: Clear
Visibility: greater than 7 miles , 10 km
2022/12/07 10:20 EGNM 071020Z 30011KT CAVOK 01/M03 Q1022
EGBB - Birmingham Airpo, United Kingdom
Distance from station: ESE 100mi, 161km
Updated: 07/12/2022 10:20
Clear
Clear
 Wind from WNW
Wind: WNW 5 mph , 7 km/h
Temperature: 0°C
Wind Chill: -3°C
Dew Point: -1°C
Humidity: 93%
Barometer: 1023 hPa
Summary: Clear
Visibility: greater than 7 miles , 10 km
2022/12/07 10:20 EGBB 071020Z 30004KT CAVOK 00/M01 Q1023